Terminal Aerodrome Forecast
Issued by NWS

Home | Current Version | Previous Version | Graphics & Text | Print | Product List | Glossary On
Versions: 1 2 3 4 5 6 7 8 9 10 11 12 13 14 15
000
FTUS43 KIWX 031721
TAFSBN
TAF
KSBN 031721Z 0318/0418 24009KT P6SM BKN060
     FM032300 25005KT P6SM VCTS BKN060CB
     FM040300 29005KT P6SM SCT050=

USA.gov is the U.S. government's official web portal to all federal, state and local government web resources and services.